sensor_id;sensor_type;location;lat;lon;timestamp;P1;durP1;ratioP1;P2;durP2;ratioP2
46014;SDS011;36844;51.898;-0.874;2023-08-06T00:00:19;3.47;;;2.10;;
46014;SDS011;36844;51.898;-0.874;2023-08-06T00:02:45;3.80;;;2.30;;
46014;SDS011;36844;51.898;-0.874;2023-08-06T00:05:10;2.70;;;1.38;;
46014;SDS011;36844;51.898;-0.874;2023-08-06T00:07:36;1.75;;;1.50;;
46014;SDS011;36844;51.898;-0.874;2023-08-06T00:10:01;3.05;;;2.25;;
46014;SDS011;36844;51.898;-0.874;2023-08-06T00:12:26;3.03;;;1.77;;
46014;SDS011;36844;51.898;-0.874;2023-08-06T00:14:52;2.53;;;1.85;;
46014;SDS011;36844;51.898;-0.874;2023-08-06T00:17:18;2.35;;;1.60;;
46014;SDS011;36844;51.898;-0.874;2023-08-06T00:19:43;1.77;;;1.52;;
46014;SDS011;36844;51.898;-0.874;2023-08-06T00:22:09;2.10;;;1.60;;
46014;SDS011;36844;51.898;-0.874;2023-08-06T00:24:34;1.85;;;1.65;;
46014;SDS011;36844;51.898;-0.874;2023-08-06T00:27:00;1.90;;;1.27;;
46014;SDS011;36844;51.898;-0.874;2023-08-06T00:29:25;2.90;;;1.92;;
46014;SDS011;36844;51.898;-0.874;2023-08-06T00:31:51;2.55;;;1.70;;
46014;SDS011;36844;51.898;-0.874;2023-08-06T00:34:16;3.17;;;1.75;;
46014;SDS011;36844;51.898;-0.874;2023-08-06T00:36:41;1.80;;;1.60;;
46014;SDS011;36844;51.898;-0.874;2023-08-06T00:39:07;2.15;;;1.63;;
46014;SDS011;36844;51.898;-0.874;2023-08-06T00:41:32;2.42;;;1.88;;
46014;SDS011;36844;51.898;-0.874;2023-08-06T00:43:57;1.40;;;1.27;;
46014;SDS011;36844;51.898;-0.874;2023-08-06T00:46:23;2.40;;;1.55;;
46014;SDS011;36844;51.898;-0.874;2023-08-06T00:48:48;1.80;;;1.33;;
46014;SDS011;36844;51.898;-0.874;2023-08-06T00:51:15;1.45;;;1.30;;
46014;SDS011;36844;51.898;-0.874;2023-08-06T00:53:41;1.58;;;1.40;;
46014;SDS011;36844;51.898;-0.874;2023-08-06T00:56:07;2.97;;;1.85;;
46014;SDS011;36844;51.898;-0.874;2023-08-06T00:58:34;1.75;;;1.13;;
46014;SDS011;36844;51.898;-0.874;2023-08-06T01:01:01;2.65;;;1.42;;
46014;SDS011;36844;51.898;-0.874;2023-08-06T01:03:27;2.60;;;1.45;;
46014;SDS011;36844;51.898;-0.874;2023-08-06T01:05:52;2.47;;;1.40;;
46014;SDS011;36844;51.898;-0.874;2023-08-06T01:11:11;2.00;;;1.30;;
46014;SDS011;36844;51.898;-0.874;2023-08-06T01:13:46;3.13;;;1.52;;
46014;SDS011;36844;51.898;-0.874;2023-08-06T01:16:18;1.67;;;1.42;;
46014;SDS011;36844;51.898;-0.874;2023-08-06T01:18:46;2.40;;;1.60;;
46014;SDS011;36844;51.898;-0.874;2023-08-06T01:21:14;2.78;;;1.42;;
46014;SDS011;36844;51.898;-0.874;2023-08-06T01:23:41;1.70;;;1.10;;
46014;SDS011;36844;51.898;-0.874;2023-08-06T01:28:53;1.73;;;1.30;;
46014;SDS011;36844;51.898;-0.874;2023-08-06T01:31:26;1.48;;;1.17;;
46014;SDS011;36844;51.898;-0.874;2023-08-06T01:33:55;1.58;;;1.38;;
46014;SDS011;36844;51.898;-0.874;2023-08-06T01:36:23;2.05;;;1.58;;
46014;SDS011;36844;51.898;-0.874;2023-08-06T01:38:50;2.22;;;1.38;;
46014;SDS011;36844;51.898;-0.874;2023-08-06T01:41:19;1.75;;;1.30;;
46014;SDS011;36844;51.898;-0.874;2023-08-06T01:43:44;1.92;;;1.35;;
46014;SDS011;36844;51.898;-0.874;2023-08-06T01:46:09;2.40;;;1.60;;
46014;SDS011;36844;51.898;-0.874;2023-08-06T01:48:35;4.25;;;1.10;;
46014;SDS011;36844;51.898;-0.874;2023-08-06T01:51:00;1.92;;;1.23;;
46014;SDS011;36844;51.898;-0.874;2023-08-06T01:53:25;3.28;;;1.20;;
46014;SDS011;36844;51.898;-0.874;2023-08-06T01:55:51;8.35;;;2.25;;
46014;SDS011;36844;51.898;-0.874;2023-08-06T01:58:16;2.90;;;1.40;;
46014;SDS011;36844;51.898;-0.874;2023-08-06T02:00:41;2.28;;;1.48;;
46014;SDS011;36844;51.898;-0.874;2023-08-06T02:03:07;1.65;;;1.08;;
46014;SDS011;36844;51.898;-0.874;2023-08-06T02:05:32;1.92;;;1.55;;
46014;SDS011;36844;51.898;-0.874;2023-08-06T02:07:58;1.95;;;1.17;;
46014;SDS011;36844;51.898;-0.874;2023-08-06T02:10:23;1.55;;;1.00;;
46014;SDS011;36844;51.898;-0.874;2023-08-06T02:12:48;1.83;;;1.30;;
46014;SDS011;36844;51.898;-0.874;2023-08-06T02:15:14;1.25;;;0.90;;
46014;SDS011;36844;51.898;-0.874;2023-08-06T02:17:39;1.20;;;1.08;;
46014;SDS011;36844;51.898;-0.874;2023-08-06T02:20:05;4.75;;;1.30;;
46014;SDS011;36844;51.898;-0.874;2023-08-06T02:22:30;1.65;;;1.17;;
46014;SDS011;36844;51.898;-0.874;2023-08-06T02:24:56;4.03;;;1.10;;
46014;SDS011;36844;51.898;-0.874;2023-08-06T02:27:21;1.98;;;1.20;;
46014;SDS011;36844;51.898;-0.874;2023-08-06T02:29:46;1.88;;;1.20;;
46014;SDS011;36844;51.898;-0.874;2023-08-06T02:32:12;1.90;;;1.10;;
46014;SDS011;36844;51.898;-0.874;2023-08-06T02:34:37;1.85;;;1.40;;
46014;SDS011;36844;51.898;-0.874;2023-08-06T02:37:02;1.08;;;0.98;;
46014;SDS011;36844;51.898;-0.874;2023-08-06T02:39:28;1.67;;;0.93;;
46014;SDS011;36844;51.898;-0.874;2023-08-06T02:41:53;2.42;;;1.65;;
46014;SDS011;36844;51.898;-0.874;2023-08-06T02:44:18;1.67;;;1.25;;
46014;SDS011;36844;51.898;-0.874;2023-08-06T02:46:44;1.38;;;1.20;;
46014;SDS011;36844;51.898;-0.874;2023-08-06T02:49:10;1.63;;;1.10;;
46014;SDS011;36844;51.898;-0.874;2023-08-06T02:51:35;2.03;;;1.35;;
46014;SDS011;36844;51.898;-0.874;2023-08-06T02:54:00;2.08;;;1.00;;
46014;SDS011;36844;51.898;-0.874;2023-08-06T02:56:26;1.30;;;1.20;;
46014;SDS011;36844;51.898;-0.874;2023-08-06T02:58:51;1.77;;;1.13;;
46014;SDS011;36844;51.898;-0.874;2023-08-06T03:01:16;1.77;;;1.17;;
46014;SDS011;36844;51.898;-0.874;2023-08-06T03:03:42;2.53;;;1.75;;
46014;SDS011;36844;51.898;-0.874;2023-08-06T03:06:07;2.28;;;1.20;;
46014;SDS011;36844;51.898;-0.874;2023-08-06T03:08:32;1.17;;;0.98;;
46014;SDS011;36844;51.898;-0.874;2023-08-06T03:10:58;1.27;;;1.00;;
46014;SDS011;36844;51.898;-0.874;2023-08-06T03:13:23;1.45;;;1.10;;
46014;SDS011;36844;51.898;-0.874;2023-08-06T03:15:52;4.18;;;1.13;;
46014;SDS011;36844;51.898;-0.874;2023-08-06T03:18:19;1.50;;;1.30;;
46014;SDS011;36844;51.898;-0.874;2023-08-06T03:20:44;1.13;;;0.88;;
46014;SDS011;36844;51.898;-0.874;2023-08-06T03:23:10;2.10;;;1.63;;
46014;SDS011;36844;51.898;-0.874;2023-08-06T03:25:35;2.60;;;1.30;;
46014;SDS011;36844;51.898;-0.874;2023-08-06T03:28:01;1.90;;;1.30;;
46014;SDS011;36844;51.898;-0.874;2023-08-06T03:30:27;1.70;;;1.13;;
46014;SDS011;36844;51.898;-0.874;2023-08-06T03:32:52;2.15;;;1.48;;
46014;SDS011;36844;51.898;-0.874;2023-08-06T03:35:17;1.75;;;1.20;;
46014;SDS011;36844;51.898;-0.874;2023-08-06T03:37:43;2.40;;;1.10;;
46014;SDS011;36844;51.898;-0.874;2023-08-06T03:40:08;2.53;;;1.17;;
46014;SDS011;36844;51.898;-0.874;2023-08-06T03:42:34;2.60;;;1.38;;
46014;SDS011;36844;51.898;-0.874;2023-08-06T03:44:59;2.22;;;1.20;;
46014;SDS011;36844;51.898;-0.874;2023-08-06T03:47:25;1.13;;;1.00;;
46014;SDS011;36844;51.898;-0.874;2023-08-06T03:49:50;2.72;;;1.48;;
46014;SDS011;36844;51.898;-0.874;2023-08-06T03:52:15;3.55;;;1.42;;
46014;SDS011;36844;51.898;-0.874;2023-08-06T03:54:41;2.65;;;1.52;;
46014;SDS011;36844;51.898;-0.874;2023-08-06T03:57:08;2.58;;;1.50;;
46014;SDS011;36844;51.898;-0.874;2023-08-06T03:59:33;2.15;;;1.30;;
46014;SDS011;36844;51.898;-0.874;2023-08-06T04:01:59;1.85;;;1.35;;
46014;SDS011;36844;51.898;-0.874;2023-08-06T04:04:24;2.80;;;1.02;;
46014;SDS011;36844;51.898;-0.874;2023-08-06T04:06:49;1.15;;;1.02;;
46014;SDS011;36844;51.898;-0.874;2023-08-06T04:09:15;2.65;;;1.20;;
46014;SDS011;36844;51.898;-0.874;2023-08-06T04:11:40;2.22;;;1.23;;
46014;SDS011;36844;51.898;-0.874;2023-08-06T04:14:05;1.80;;;1.40;;
46014;SDS011;36844;51.898;-0.874;2023-08-06T04:16:31;1.40;;;1.23;;
46014;SDS011;36844;51.898;-0.874;2023-08-06T04:18:56;1.80;;;1.58;;
46014;SDS011;36844;51.898;-0.874;2023-08-06T04:21:23;2.60;;;1.50;;
46014;SDS011;36844;51.898;-0.874;2023-08-06T04:23:49;1.73;;;1.48;;
46014;SDS011;36844;51.898;-0.874;2023-08-06T04:26:14;2.55;;;1.33;;
46014;SDS011;36844;51.898;-0.874;2023-08-06T04:28:40;3.60;;;1.30;;
46014;SDS011;36844;51.898;-0.874;2023-08-06T04:31:05;5.05;;;1.75;;
46014;SDS011;36844;51.898;-0.874;2023-08-06T04:33:31;2.22;;;1.40;;
46014;SDS011;36844;51.898;-0.874;2023-08-06T04:35:56;2.38;;;1.40;;
46014;SDS011;36844;51.898;-0.874;2023-08-06T04:38:25;1.92;;;1.15;;
46014;SDS011;36844;51.898;-0.874;2023-08-06T04:40:50;1.42;;;1.20;;
46014;SDS011;36844;51.898;-0.874;2023-08-06T04:43:16;1.65;;;1.25;;
46014;SDS011;36844;51.898;-0.874;2023-08-06T04:45:48;2.25;;;1.50;;
46014;SDS011;36844;51.898;-0.874;2023-08-06T04:48:14;2.35;;;1.52;;
46014;SDS011;36844;51.898;-0.874;2023-08-06T04:50:49;4.30;;;1.63;;
46014;SDS011;36844;51.898;-0.874;2023-08-06T04:53:15;1.63;;;1.33;;
46014;SDS011;36844;51.898;-0.874;2023-08-06T04:55:41;2.00;;;1.40;;
46014;SDS011;36844;51.898;-0.874;2023-08-06T04:58:08;2.33;;;1.55;;
46014;SDS011;36844;51.898;-0.874;2023-08-06T05:00:34;1.85;;;1.27;;
46014;SDS011;36844;51.898;-0.874;2023-08-06T05:02:59;2.47;;;1.30;;
46014;SDS011;36844;51.898;-0.874;2023-08-06T05:05:26;2.45;;;1.27;;
46014;SDS011;36844;51.898;-0.874;2023-08-06T05:07:51;3.08;;;1.60;;
46014;SDS011;36844;51.898;-0.874;2023-08-06T05:10:19;4.03;;;1.80;;
46014;SDS011;36844;51.898;-0.874;2023-08-06T05:12:44;2.42;;;1.48;;
46014;SDS011;36844;51.898;-0.874;2023-08-06T05:15:09;2.78;;;1.33;;
46014;SDS011;36844;51.898;-0.874;2023-08-06T05:17:34;2.08;;;1.42;;
46014;SDS011;36844;51.898;-0.874;2023-08-06T05:20:00;2.15;;;1.55;;
46014;SDS011;36844;51.898;-0.874;2023-08-06T05:22:25;1.98;;;1.08;;
46014;SDS011;36844;51.898;-0.874;2023-08-06T05:24:51;1.92;;;1.40;;
46014;SDS011;36844;51.898;-0.874;2023-08-06T05:27:16;3.10;;;1.27;;
46014;SDS011;36844;51.898;-0.874;2023-08-06T05:29:43;2.65;;;1.45;;
46014;SDS011;36844;51.898;-0.874;2023-08-06T05:32:09;1.92;;;1.45;;
46014;SDS011;36844;51.898;-0.874;2023-08-06T05:34:35;5.45;;;1.52;;
46014;SDS011;36844;51.898;-0.874;2023-08-06T05:37:00;2.70;;;1.40;;
46014;SDS011;36844;51.898;-0.874;2023-08-06T05:39:25;3.17;;;1.17;;
46014;SDS011;36844;51.898;-0.874;2023-08-06T05:41:51;2.65;;;1.67;;
46014;SDS011;36844;51.898;-0.874;2023-08-06T05:44:17;1.52;;;1.40;;
46014;SDS011;36844;51.898;-0.874;2023-08-06T05:46:42;2.65;;;1.77;;
46014;SDS011;36844;51.898;-0.874;2023-08-06T05:49:08;1.75;;;1.23;;
46014;SDS011;36844;51.898;-0.874;2023-08-06T05:51:33;2.08;;;1.38;;
46014;SDS011;36844;51.898;-0.874;2023-08-06T05:53:58;4.47;;;1.73;;
46014;SDS011;36844;51.898;-0.874;2023-08-06T05:56:24;2.17;;;1.33;;
46014;SDS011;36844;51.898;-0.874;2023-08-06T05:58:49;1.17;;;1.02;;
46014;SDS011;36844;51.898;-0.874;2023-08-06T06:01:17;1.55;;;1.20;;
46014;SDS011;36844;51.898;-0.874;2023-08-06T06:03:43;1.83;;;1.23;;
46014;SDS011;36844;51.898;-0.874;2023-08-06T06:06:08;1.30;;;0.98;;
46014;SDS011;36844;51.898;-0.874;2023-08-06T06:08:34;2.70;;;0.88;;
46014;SDS011;36844;51.898;-0.874;2023-08-06T06:10:59;1.63;;;1.50;;
46014;SDS011;36844;51.898;-0.874;2023-08-06T06:13:24;1.75;;;1.30;;
46014;SDS011;36844;51.898;-0.874;2023-08-06T06:15:50;1.45;;;1.17;;
46014;SDS011;36844;51.898;-0.874;2023-08-06T06:18:18;2.65;;;1.30;;
46014;SDS011;36844;51.898;-0.874;2023-08-06T06:20:44;1.27;;;1.13;;
46014;SDS011;36844;51.898;-0.874;2023-08-06T06:23:09;1.48;;;1.13;;
46014;SDS011;36844;51.898;-0.874;2023-08-06T06:25:34;1.52;;;1.13;;
46014;SDS011;36844;51.898;-0.874;2023-08-06T06:28:00;2.00;;;1.40;;
46014;SDS011;36844;51.898;-0.874;2023-08-06T06:30:25;2.80;;;1.17;;
46014;SDS011;36844;51.898;-0.874;2023-08-06T06:32:50;0.95;;;0.80;;
46014;SDS011;36844;51.898;-0.874;2023-08-06T06:35:16;1.90;;;1.23;;
46014;SDS011;36844;51.898;-0.874;2023-08-06T06:37:41;1.90;;;1.20;;
46014;SDS011;36844;51.898;-0.874;2023-08-06T06:40:06;4.05;;;1.08;;
46014;SDS011;36844;51.898;-0.874;2023-08-06T06:42:32;2.10;;;0.95;;
46014;SDS011;36844;51.898;-0.874;2023-08-06T06:44:57;2.08;;;1.10;;
46014;SDS011;36844;51.898;-0.874;2023-08-06T06:47:23;1.88;;;0.93;;
46014;SDS011;36844;51.898;-0.874;2023-08-06T06:49:48;1.25;;;0.95;;
46014;SDS011;36844;51.898;-0.874;2023-08-06T06:52:13;1.38;;;1.13;;
46014;SDS011;36844;51.898;-0.874;2023-08-06T06:54:39;1.52;;;1.00;;
46014;SDS011;36844;51.898;-0.874;2023-08-06T06:57:04;1.65;;;1.10;;
46014;SDS011;36844;51.898;-0.874;2023-08-06T06:59:31;1.15;;;0.98;;
46014;SDS011;36844;51.898;-0.874;2023-08-06T07:01:56;2.60;;;1.35;;
46014;SDS011;36844;51.898;-0.874;2023-08-06T07:04:21;1.27;;;0.80;;
46014;SDS011;36844;51.898;-0.874;2023-08-06T07:06:47;1.70;;;1.20;;
46014;SDS011;36844;51.898;-0.874;2023-08-06T07:09:12;0.77;;;0.73;;
46014;SDS011;36844;51.898;-0.874;2023-08-06T07:11:37;1.55;;;0.88;;
46014;SDS011;36844;51.898;-0.874;2023-08-06T07:14:03;1.08;;;0.80;;
46014;SDS011;36844;51.898;-0.874;2023-08-06T07:16:28;1.27;;;1.17;;
46014;SDS011;36844;51.898;-0.874;2023-08-06T07:18:54;1.58;;;1.30;;
46014;SDS011;36844;51.898;-0.874;2023-08-06T07:21:19;1.52;;;1.13;;
46014;SDS011;36844;51.898;-0.874;2023-08-06T07:23:45;2.05;;;1.02;;
46014;SDS011;36844;51.898;-0.874;2023-08-06T07:26:11;1.20;;;1.00;;
46014;SDS011;36844;51.898;-0.874;2023-08-06T07:28:36;1.23;;;0.90;;
46014;SDS011;36844;51.898;-0.874;2023-08-06T07:31:02;1.73;;;0.93;;
46014;SDS011;36844;51.898;-0.874;2023-08-06T07:33:28;1.42;;;1.25;;
46014;SDS011;36844;51.898;-0.874;2023-08-06T07:35:53;2.00;;;0.93;;
46014;SDS011;36844;51.898;-0.874;2023-08-06T07:38:19;1.20;;;1.00;;
46014;SDS011;36844;51.898;-0.874;2023-08-06T07:40:44;3.55;;;1.00;;
46014;SDS011;36844;51.898;-0.874;2023-08-06T07:43:10;1.55;;;1.10;;
46014;SDS011;36844;51.898;-0.874;2023-08-06T07:45:35;2.42;;;1.35;;
46014;SDS011;36844;51.898;-0.874;2023-08-06T07:48:01;2.00;;;1.20;;
46014;SDS011;36844;51.898;-0.874;2023-08-06T07:50:27;1.70;;;1.20;;
46014;SDS011;36844;51.898;-0.874;2023-08-06T07:52:52;1.08;;;0.90;;
46014;SDS011;36844;51.898;-0.874;2023-08-06T07:55:17;1.00;;;0.80;;
46014;SDS011;36844;51.898;-0.874;2023-08-06T07:57:42;1.00;;;0.77;;
46014;SDS011;36844;51.898;-0.874;2023-08-06T08:00:08;1.35;;;1.23;;
46014;SDS011;36844;51.898;-0.874;2023-08-06T08:02:34;1.70;;;1.25;;
46014;SDS011;36844;51.898;-0.874;2023-08-06T08:05:00;1.17;;;0.88;;
46014;SDS011;36844;51.898;-0.874;2023-08-06T08:07:25;1.17;;;0.90;;
46014;SDS011;36844;51.898;-0.874;2023-08-06T08:09:52;1.40;;;0.80;;
46014;SDS011;36844;51.898;-0.874;2023-08-06T08:12:17;1.23;;;1.02;;
46014;SDS011;36844;51.898;-0.874;2023-08-06T08:14:43;1.02;;;0.77;;
46014;SDS011;36844;51.898;-0.874;2023-08-06T08:17:10;1.63;;;1.00;;
46014;SDS011;36844;51.898;-0.874;2023-08-06T08:19:36;1.10;;;1.00;;
46014;SDS011;36844;51.898;-0.874;2023-08-06T08:22:01;1.25;;;0.80;;
46014;SDS011;36844;51.898;-0.874;2023-08-06T08:24:26;1.17;;;1.08;;
46014;SDS011;36844;51.898;-0.874;2023-08-06T08:26:52;1.77;;;1.05;;
46014;SDS011;36844;51.898;-0.874;2023-08-06T08:29:19;4.07;;;1.35;;
46014;SDS011;36844;51.898;-0.874;2023-08-06T08:31:45;3.28;;;1.17;;
46014;SDS011;36844;51.898;-0.874;2023-08-06T08:34:10;1.23;;;0.80;;
46014;SDS011;36844;51.898;-0.874;2023-08-06T08:36:35;2.47;;;1.25;;
46014;SDS011;36844;51.898;-0.874;2023-08-06T08:39:01;2.00;;;1.33;;
46014;SDS011;36844;51.898;-0.874;2023-08-06T08:41:29;1.73;;;1.25;;
46014;SDS011;36844;51.898;-0.874;2023-08-06T08:43:56;2.17;;;1.20;;
46014;SDS011;36844;51.898;-0.874;2023-08-06T08:46:23;1.13;;;0.90;;
46014;SDS011;36844;51.898;-0.874;2023-08-06T08:48:50;2.42;;;1.10;;
46014;SDS011;36844;51.898;-0.874;2023-08-06T08:51:16;1.45;;;1.05;;
46014;SDS011;36844;51.898;-0.874;2023-08-06T08:53:42;0.85;;;0.75;;
46014;SDS011;36844;51.898;-0.874;2023-08-06T08:56:09;1.05;;;0.95;;
46014;SDS011;36844;51.898;-0.874;2023-08-06T08:58:37;1.48;;;1.10;;
46014;SDS011;36844;51.898;-0.874;2023-08-06T09:01:03;2.67;;;1.27;;
46014;SDS011;36844;51.898;-0.874;2023-08-06T09:03:29;2.20;;;1.90;;
46014;SDS011;36844;51.898;-0.874;2023-08-06T09:05:55;2.00;;;1.27;;
46014;SDS011;36844;51.898;-0.874;2023-08-06T09:08:24;1.55;;;1.23;;
46014;SDS011;36844;51.898;-0.874;2023-08-06T09:10:54;2.97;;;1.65;;
46014;SDS011;36844;51.898;-0.874;2023-08-06T09:13:21;4.32;;;1.30;;
46014;SDS011;36844;51.898;-0.874;2023-08-06T09:15:48;1.15;;;0.95;;
46014;SDS011;36844;51.898;-0.874;2023-08-06T09:18:15;3.13;;;1.35;;
46014;SDS011;36844;51.898;-0.874;2023-08-06T09:20:51;2.95;;;1.63;;
46014;SDS011;36844;51.898;-0.874;2023-08-06T09:23:16;3.08;;;1.63;;
46014;SDS011;36844;51.898;-0.874;2023-08-06T09:25:42;1.88;;;1.33;;
46014;SDS011;36844;51.898;-0.874;2023-08-06T09:28:07;10.10;;;3.55;;
46014;SDS011;36844;51.898;-0.874;2023-08-06T09:30:33;19.92;;;4.57;;
46014;SDS011;36844;51.898;-0.874;2023-08-06T09:33:00;15.15;;;4.50;;
46014;SDS011;36844;51.898;-0.874;2023-08-06T09:35:29;16.80;;;5.32;;
46014;SDS011;36844;51.898;-0.874;2023-08-06T09:37:56;15.70;;;5.18;;
46014;SDS011;36844;51.898;-0.874;2023-08-06T09:40:32;20.23;;;4.95;;
46014;SDS011;36844;51.898;-0.874;2023-08-06T09:42:58;13.60;;;4.32;;
46014;SDS011;36844;51.898;-0.874;2023-08-06T09:45:31;13.20;;;4.25;;
46014;SDS011;36844;51.898;-0.874;2023-08-06T09:47:58;11.02;;;4.10;;
46014;SDS011;36844;51.898;-0.874;2023-08-06T09:50:28;15.98;;;4.63;;
46014;SDS011;36844;51.898;-0.874;2023-08-06T09:52:57;17.27;;;4.68;;
46014;SDS011;36844;51.898;-0.874;2023-08-06T09:55:24;11.50;;;4.40;;
46014;SDS011;36844;51.898;-0.874;2023-08-06T09:57:51;12.65;;;4.28;;
46014;SDS011;36844;51.898;-0.874;2023-08-06T10:00:17;14.65;;;3.75;;
46014;SDS011;36844;51.898;-0.874;2023-08-06T10:02:42;15.50;;;4.18;;
46014;SDS011;36844;51.898;-0.874;2023-08-06T10:05:08;10.73;;;4.00;;
46014;SDS011;36844;51.898;-0.874;2023-08-06T10:07:36;7.25;;;2.67;;
46014;SDS011;36844;51.898;-0.874;2023-08-06T10:10:04;9.82;;;2.85;;
46014;SDS011;36844;51.898;-0.874;2023-08-06T10:12:31;6.82;;;3.05;;
46014;SDS011;36844;51.898;-0.874;2023-08-06T10:15:00;8.20;;;2.78;;
46014;SDS011;36844;51.898;-0.874;2023-08-06T10:17:29;13.75;;;3.85;;
46014;SDS011;36844;51.898;-0.874;2023-08-06T10:19:56;7.45;;;3.63;;
46014;SDS011;36844;51.898;-0.874;2023-08-06T10:22:22;5.22;;;2.65;;
46014;SDS011;36844;51.898;-0.874;2023-08-06T10:24:52;9.63;;;3.58;;
46014;SDS011;36844;51.898;-0.874;2023-08-06T10:30:22;4.90;;;2.55;;
46014;SDS011;36844;51.898;-0.874;2023-08-06T10:32:52;7.72;;;2.40;;
46014;SDS011;36844;51.898;-0.874;2023-08-06T10:38:02;9.30;;;2.30;;
46014;SDS011;36844;51.898;-0.874;2023-08-06T10:40:36;5.18;;;2.25;;
46014;SDS011;36844;51.898;-0.874;2023-08-06T10:43:04;5.00;;;2.20;;
46014;SDS011;36844;51.898;-0.874;2023-08-06T10:45:34;7.22;;;2.58;;
46014;SDS011;36844;51.898;-0.874;2023-08-06T10:48:00;5.60;;;2.38;;
46014;SDS011;36844;51.898;-0.874;2023-08-06T10:50:25;5.53;;;1.85;;
46014;SDS011;36844;51.898;-0.874;2023-08-06T10:52:51;5.95;;;2.63;;
46014;SDS011;36844;51.898;-0.874;2023-08-06T10:57:50;4.38;;;1.80;;
46014;SDS011;36844;51.898;-0.874;2023-08-06T11:00:15;4.47;;;1.92;;
46014;SDS011;36844;51.898;-0.874;2023-08-06T11:02:41;4.97;;;1.83;;
46014;SDS011;36844;51.898;-0.874;2023-08-06T11:05:07;5.20;;;1.73;;
46014;SDS011;36844;51.898;-0.874;2023-08-06T11:07:37;6.30;;;2.15;;
46014;SDS011;36844;51.898;-0.874;2023-08-06T11:12:29;6.53;;;1.88;;
46014;SDS011;36844;51.898;-0.874;2023-08-06T11:14:55;4.25;;;1.40;;
46014;SDS011;36844;51.898;-0.874;2023-08-06T11:17:21;3.47;;;1.48;;
46014;SDS011;36844;51.898;-0.874;2023-08-06T11:19:46;4.47;;;1.20;;
46014;SDS011;36844;51.898;-0.874;2023-08-06T11:22:12;3.35;;;1.48;;
46014;SDS011;36844;51.898;-0.874;2023-08-06T11:24:37;3.13;;;1.40;;
46014;SDS011;36844;51.898;-0.874;2023-08-06T11:27:10;5.68;;;1.40;;
46014;SDS011;36844;51.898;-0.874;2023-08-06T11:29:37;2.60;;;1.33;;
46014;SDS011;36844;51.898;-0.874;2023-08-06T11:32:04;5.25;;;1.75;;
46014;SDS011;36844;51.898;-0.874;2023-08-06T11:34:30;3.35;;;1.30;;
46014;SDS011;36844;51.898;-0.874;2023-08-06T11:36:56;2.95;;;1.35;;
46014;SDS011;36844;51.898;-0.874;2023-08-06T11:39:21;1.67;;;1.38;;
46014;SDS011;36844;51.898;-0.874;2023-08-06T11:41:47;2.97;;;1.30;;
46014;SDS011;36844;51.898;-0.874;2023-08-06T11:44:13;2.67;;;1.30;;
46014;SDS011;36844;51.898;-0.874;2023-08-06T11:46:57;4.50;;;1.17;;
46014;SDS011;36844;51.898;-0.874;2023-08-06T11:54:44;3.05;;;1.10;;
46014;SDS011;36844;51.898;-0.874;2023-08-06T11:57:10;3.90;;;0.95;;
46014;SDS011;36844;51.898;-0.874;2023-08-06T11:59:37;2.33;;;1.20;;
46014;SDS011;36844;51.898;-0.874;2023-08-06T12:02:03;1.83;;;1.13;;
46014;SDS011;36844;51.898;-0.874;2023-08-06T12:04:50;2.28;;;1.20;;
46014;SDS011;36844;51.898;-0.874;2023-08-06T12:07:25;11.95;;;1.58;;
46014;SDS011;36844;51.898;-0.874;2023-08-06T12:09:53;2.42;;;0.90;;
46014;SDS011;36844;51.898;-0.874;2023-08-06T12:12:19;2.78;;;1.20;;
46014;SDS011;36844;51.898;-0.874;2023-08-06T12:14:44;3.90;;;1.42;;
46014;SDS011;36844;51.898;-0.874;2023-08-06T12:17:09;6.10;;;1.35;;
46014;SDS011;36844;51.898;-0.874;2023-08-06T12:19:34;5.25;;;1.52;;
46014;SDS011;36844;51.898;-0.874;2023-08-06T12:22:00;1.67;;;1.23;;
46014;SDS011;36844;51.898;-0.874;2023-08-06T12:24:26;1.67;;;1.00;;
46014;SDS011;36844;51.898;-0.874;2023-08-06T12:26:51;3.53;;;1.38;;
46014;SDS011;36844;51.898;-0.874;2023-08-06T12:29:17;1.90;;;1.45;;
46014;SDS011;36844;51.898;-0.874;2023-08-06T12:31:42;3.17;;;1.40;;
46014;SDS011;36844;51.898;-0.874;2023-08-06T12:34:07;1.05;;;0.88;;
46014;SDS011;36844;51.898;-0.874;2023-08-06T12:36:32;1.00;;;0.90;;
46014;SDS011;36844;51.898;-0.874;2023-08-06T12:38:58;1.33;;;1.20;;
46014;SDS011;36844;51.898;-0.874;2023-08-06T12:41:23;1.58;;;0.63;;
46014;SDS011;36844;51.898;-0.874;2023-08-06T12:43:49;2.10;;;0.90;;
46014;SDS011;36844;51.898;-0.874;2023-08-06T12:46:14;1.73;;;0.98;;
46014;SDS011;36844;51.898;-0.874;2023-08-06T12:48:40;0.70;;;0.60;;
46014;SDS011;36844;51.898;-0.874;2023-08-06T12:51:05;3.10;;;1.27;;
46014;SDS011;36844;51.898;-0.874;2023-08-06T12:53:30;2.35;;;0.90;;
46014;SDS011;36844;51.898;-0.874;2023-08-06T12:55:56;1.70;;;0.82;;
46014;SDS011;36844;51.898;-0.874;2023-08-06T12:58:21;1.90;;;0.82;;
46014;SDS011;36844;51.898;-0.874;2023-08-06T13:00:46;1.33;;;0.98;;
46014;SDS011;36844;51.898;-0.874;2023-08-06T13:03:12;2.65;;;1.13;;
46014;SDS011;36844;51.898;-0.874;2023-08-06T13:05:37;5.18;;;0.93;;
46014;SDS011;36844;51.898;-0.874;2023-08-06T13:08:03;1.65;;;1.00;;
46014;SDS011;36844;51.898;-0.874;2023-08-06T13:10:28;1.67;;;1.00;;
46014;SDS011;36844;51.898;-0.874;2023-08-06T13:12:54;1.23;;;0.80;;
46014;SDS011;36844;51.898;-0.874;2023-08-06T13:15:20;3.15;;;0.70;;
46014;SDS011;36844;51.898;-0.874;2023-08-06T13:17:46;1.63;;;1.05;;
46014;SDS011;36844;51.898;-0.874;2023-08-06T13:20:12;1.23;;;0.80;;
46014;SDS011;36844;51.898;-0.874;2023-08-06T13:22:37;1.67;;;1.00;;
46014;SDS011;36844;51.898;-0.874;2023-08-06T13:25:03;1.15;;;0.65;;
46014;SDS011;36844;51.898;-0.874;2023-08-06T13:27:28;4.85;;;0.60;;
46014;SDS011;36844;51.898;-0.874;2023-08-06T13:29:53;4.28;;;0.88;;
46014;SDS011;36844;51.898;-0.874;2023-08-06T13:32:19;4.18;;;0.80;;
46014;SDS011;36844;51.898;-0.874;2023-08-06T13:34:44;1.02;;;0.70;;
46014;SDS011;36844;51.898;-0.874;2023-08-06T13:37:09;6.28;;;0.60;;
46014;SDS011;36844;51.898;-0.874;2023-08-06T13:39:35;5.78;;;0.85;;
46014;SDS011;36844;51.898;-0.874;2023-08-06T13:42:01;1.95;;;0.90;;
46014;SDS011;36844;51.898;-0.874;2023-08-06T13:44:26;1.70;;;0.80;;
46014;SDS011;36844;51.898;-0.874;2023-08-06T13:46:52;3.88;;;0.80;;
46014;SDS011;36844;51.898;-0.874;2023-08-06T13:49:17;3.35;;;0.60;;
46014;SDS011;36844;51.898;-0.874;2023-08-06T13:51:42;1.67;;;0.77;;
46014;SDS011;36844;51.898;-0.874;2023-08-06T13:54:07;1.88;;;0.73;;
46014;SDS011;36844;51.898;-0.874;2023-08-06T13:58:59;4.47;;;0.60;;
46014;SDS011;36844;51.898;-0.874;2023-08-06T14:01:24;1.60;;;0.68;;
46014;SDS011;36844;51.898;-0.874;2023-08-06T14:03:50;0.90;;;0.70;;
46014;SDS011;36844;51.898;-0.874;2023-08-06T14:06:15;1.92;;;0.93;;
46014;SDS011;36844;51.898;-0.874;2023-08-06T14:08:40;1.15;;;0.68;;
46014;SDS011;36844;51.898;-0.874;2023-08-06T14:11:06;1.35;;;0.65;;
46014;SDS011;36844;51.898;-0.874;2023-08-06T14:13:31;1.20;;;0.68;;
46014;SDS011;36844;51.898;-0.874;2023-08-06T14:15:57;1.55;;;0.70;;
46014;SDS011;36844;51.898;-0.874;2023-08-06T14:18:22;1.58;;;1.25;;
46014;SDS011;36844;51.898;-0.874;2023-08-06T14:20:47;0.98;;;0.65;;
46014;SDS011;36844;51.898;-0.874;2023-08-06T14:23:13;3.17;;;0.70;;
46014;SDS011;36844;51.898;-0.874;2023-08-06T14:25:38;4.57;;;0.65;;
46014;SDS011;36844;51.898;-0.874;2023-08-06T14:28:04;0.60;;;0.60;;
46014;SDS011;36844;51.898;-0.874;2023-08-06T14:30:31;3.22;;;1.08;;
46014;SDS011;36844;51.898;-0.874;2023-08-06T14:32:56;2.53;;;0.93;;
46014;SDS011;36844;51.898;-0.874;2023-08-06T14:35:22;0.45;;;0.45;;
46014;SDS011;36844;51.898;-0.874;2023-08-06T14:37:47;1.27;;;1.17;;
46014;SDS011;36844;51.898;-0.874;2023-08-06T14:40:13;1.13;;;1.02;;
46014;SDS011;36844;51.898;-0.874;2023-08-06T14:42:38;1.38;;;0.60;;
46014;SDS011;36844;51.898;-0.874;2023-08-06T14:45:04;1.35;;;1.10;;
46014;SDS011;36844;51.898;-0.874;2023-08-06T14:47:29;1.08;;;0.82;;
46014;SDS011;36844;51.898;-0.874;2023-08-06T14:49:55;0.95;;;0.70;;